Domov               UVHVVR             MKGP            O straneh              
ZDRAVSTVENO VARSTVO RASTLIN
  MREŽA AGROMET. POSTAJ
 ► PROGNOSTIČNA OBVESTILA
AGROMETEOROLOŠKI PODATKI -
ARSO
OBVLADOVANJE TVEGANJ ZARADI
NEUGODNIH VREMENSKIH RAZMER
  ► NARAVNE NESREČE
  ► SUŠA/MOČA
  ► NAMAKANJE
  ► ŽLED (gozdarstvo)
KARTOGRAFSKI PRIKAZI
SPLETNE POVEZAVE
PROJEKTI IN PUBLIKACIJE

AGROMETEOROLOŠKA MREŽA: VREMENSKE POSTAJE IN FENOLOŠKA OPAZOVANJA

Pregled podatkov za lokacijo Pohorski dvor, meteorološka postaja 27262

Pregled senzorjev na lokaciji

ID Ime Zadnja
vrednost
Datum
zadnje
spremembe
Tip
senzorja
959 Relativna vlaga 2 m (% RH) 65,83 % RH 28.6.2017 17:01 Generic 0 - 100 %
960 Omočenost lista (U) 2,53 U 28.6.2017 17:01 A730WET
961 Padavine 0.2 mm (mm) 0 mm 28.6.2017 17:15 Generic
963 Temperatura 2 m ( °C) 24,71 °C 28.6.2017 17:16 Generic -40 - +60 °C

Pregled podatkov zadnjih 24 ur

Zap.
št.
Datum in čas Pohorski dvor
Omočenost
lista
Padavine
0.2
mm
Relativna
vlaga
2
m
Temperatura
2
m
0 28.6.2017 16:00 1,37 0 63,53 24,13
1 28.6.2017 15:30 0 0 53,72 25,38
2 28.6.2017 15:00 0 0 54,1 26,17
3 28.6.2017 14:30 0 0 62,62 23,94
4 28.6.2017 14:00 0,4 0 85,79 21,41
5 28.6.2017 13:30 10 2,4 69,08 23,84
6 28.6.2017 13:00 2,6 0 53,33 26,89
7 28.6.2017 12:30 0 0 46,89 27,97
8 28.6.2017 12:00 0 0 43,68 29,53
9 28.6.2017 11:30 0 0 44,69 29,46
10 28.6.2017 11:00 0 0 46,64 29,08
11 28.6.2017 10:30 0 0 49,67 28,23
12 28.6.2017 10:00 0 0 49,85 27,24
13 28.6.2017 09:30 0 0 46,6 28,25
14 28.6.2017 09:00 0 0 47,14 27,77
15 28.6.2017 08:30 0 0 51,04 27,09
16 28.6.2017 08:00 0 0 50,58 26,8
17 28.6.2017 07:30 0 0 54,33 25,28
18 28.6.2017 07:00 0 0 72,22 20,75
19 28.6.2017 06:30 0 0 77,74 19,93
20 28.6.2017 06:00 0 0 78,49 19,68
21 28.6.2017 05:30 0 0 88,24 17,4
22 28.6.2017 05:00 0 0 87,85 16,68
23 28.6.2017 04:30 0 0 89,7 16,01
24 28.6.2017 04:00 0 0 89,13 15,51
25 28.6.2017 03:30 0 0 88,12 15,7
26 28.6.2017 03:00 0 0 84,59 16,59
27 28.6.2017 02:30 0 0 85,26 16,47
28 28.6.2017 02:00 0 0 83,5 16,92
29 28.6.2017 01:30 0 0 80,98 17,11
30 28.6.2017 01:00 0 0 76,66 17,85
31 28.6.2017 00:30 0 0 73,67 18,29
32 28.6.2017 00:00 0 0 69,75 19,02
33 27.6.2017 23:30 0 0 69,54 18,93
34 27.6.2017 23:00 0 0 68 18,65
35 27.6.2017 22:30 0 0 61,7 20,15
36 27.6.2017 22:00 0 0 56,16 21,61
37 27.6.2017 21:30 0 0 55,05 21,97
38 27.6.2017 21:00 0 0 52,22 22,68
39 27.6.2017 20:30 0 0 48,44 23,48
40 27.6.2017 20:00 0 0 50,63 23,33
41 27.6.2017 19:30 0 0 52,98 23,37
42 27.6.2017 19:00 0 0 59,32 23,63
43 27.6.2017 18:30 0 0 53,64 24,33
44 27.6.2017 18:00 0 0 56,24 24,22
© 2011 Ministrstvo za kmetijstvo, gozdarstvo in prehrano. Vse pravice pridržane.